GWI52Y EGKK-EDDN
Flight info
| Callsign | GWI52Y |
|---|---|
| Flight time | N/A |
| Altitude | 33000 |
| Route | ODVIK Y311 DVR UL9 KONAN UL607 MATUG DCT AMASI DCT BOMBI T104 ELMOX DCT LETKU LETKU1V |
| Aircraft | MD82/M-SDFGIRWY/S |
Departure
| Time | 2026-05-04 20:18 |
|---|---|
| Airport | London Gatwick Airport (EGKK) |
Arrival
| Time | N/A |
|---|---|
| Airport | Nuremberg Airport (EDDN) |
| Time | Latitude | Longitude | Altitude | Speed | Heading |
|---|---|---|---|---|---|
| 2026-05-04 19:34 | 51.15818 | -0.17736 | 206 ft | 0 kts | 348° |
| 2026-05-04 19:52 | 51.15816 | -0.17735 | 205 ft | 2 kts | 348° |
| 2026-05-04 19:52 | 51.15799 | -0.17729 | 216 ft | 3 kts | 347° |
| 2026-05-04 19:53 | 51.15773 | -0.17720 | 216 ft | 4 kts | 346° |
| 2026-05-04 19:53 | 51.15748 | -0.17707 | 205 ft | 2 kts | 330° |
| 2026-05-04 19:53 | 51.15740 | -0.17695 | 208 ft | 2 kts | 288° |
| 2026-05-04 19:53 | 51.15739 | -0.17678 | 216 ft | 2 kts | 261° |
| 2026-05-04 19:54 | 51.15740 | -0.17669 | 209 ft | 0 kts | 259° |
| 2026-05-04 19:57 | 51.15739 | -0.17681 | 216 ft | 5 kts | 259° |
| 2026-05-04 19:57 | 51.15724 | -0.17792 | 205 ft | 15 kts | 257° |
| 2026-05-04 19:58 | 51.15695 | -0.18000 | 207 ft | 23 kts | 258° |
| 2026-05-04 19:58 | 51.15657 | -0.18242 | 211 ft | 17 kts | 252° |
| 2026-05-04 19:58 | 51.15634 | -0.18344 | 206 ft | 7 kts | 216° |
| 2026-05-04 19:58 | 51.15556 | -0.18338 | 210 ft | 15 kts | 166° |
| 2026-05-04 19:59 | 51.15430 | -0.18295 | 214 ft | 20 kts | 168° |
| 2026-05-04 19:59 | 51.15293 | -0.18248 | 209 ft | 20 kts | 167° |
| 2026-05-04 19:59 | 51.15184 | -0.18279 | 207 ft | 11 kts | 238° |
| 2026-05-04 19:59 | 51.15170 | -0.18419 | 205 ft | 16 kts | 265° |
| 2026-05-04 20:00 | 51.15147 | -0.18608 | 205 ft | 20 kts | 257° |
| 2026-05-04 20:00 | 51.15111 | -0.18857 | 215 ft | 25 kts | 257° |
| 2026-05-04 20:00 | 51.15075 | -0.19142 | 211 ft | 27 kts | 256° |
| 2026-05-04 20:00 | 51.15033 | -0.19451 | 209 ft | 29 kts | 257° |
| 2026-05-04 20:01 | 51.14990 | -0.19758 | 206 ft | 28 kts | 257° |
| 2026-05-04 20:01 | 51.14948 | -0.20062 | 207 ft | 28 kts | 258° |
| 2026-05-04 20:01 | 51.14906 | -0.20361 | 207 ft | 28 kts | 257° |
| 2026-05-04 20:01 | 51.14866 | -0.20659 | 205 ft | 27 kts | 258° |
| 2026-05-04 20:02 | 51.14825 | -0.20947 | 214 ft | 23 kts | 257° |
| 2026-05-04 20:02 | 51.14805 | -0.21093 | 208 ft | 7 kts | 257° |
| 2026-05-04 20:02 | 51.14798 | -0.21136 | 215 ft | 4 kts | 250° |
| 2026-05-04 20:02 | 51.14787 | -0.21173 | 212 ft | 4 kts | 246° |
| 2026-05-04 20:03 | 51.14781 | -0.21202 | 208 ft | 0 kts | 255° |
| 2026-05-04 20:04 | 51.14780 | -0.21206 | 211 ft | 3 kts | 255° |
| 2026-05-04 20:05 | 51.14773 | -0.21250 | 205 ft | 5 kts | 257° |
| 2026-05-04 20:05 | 51.14767 | -0.21300 | 208 ft | 5 kts | 258° |
| 2026-05-04 20:05 | 51.14763 | -0.21331 | 205 ft | 0 kts | 258° |
| 2026-05-04 20:05 | 51.14763 | -0.21332 | 205 ft | 0 kts | 258° |
| 2026-05-04 20:09 | 51.14761 | -0.21351 | 212 ft | 3 kts | 257° |
| 2026-05-04 20:09 | 51.14742 | -0.21395 | 211 ft | 4 kts | 213° |
| 2026-05-04 20:10 | 51.14737 | -0.21398 | 206 ft | 0 kts | 201° |
| 2026-05-04 20:12 | 51.14736 | -0.21399 | 206 ft | 2 kts | 200° |
| 2026-05-04 20:12 | 51.14703 | -0.21401 | 206 ft | 6 kts | 172° |
| 2026-05-04 20:12 | 51.14679 | -0.21384 | 210 ft | 6 kts | 141° |
| 2026-05-04 20:13 | 51.14632 | -0.21337 | 208 ft | 6 kts | 163° |
| 2026-05-04 20:13 | 51.14623 | -0.21334 | 206 ft | 0 kts | 166° |
| 2026-05-04 20:16 | 51.14572 | -0.21308 | 209 ft | 16 kts | 154° |
| 2026-05-04 20:16 | 51.14518 | -0.21194 | 206 ft | 8 kts | 92° |
| 2026-05-04 20:16 | 51.14523 | -0.21146 | 207 ft | 0 kts | 76° |
| 2026-05-04 20:17 | 51.14526 | -0.21126 | 214 ft | 12 kts | 76° |
| 2026-05-04 20:17 | 51.14599 | -0.20608 | 218 ft | 86 kts | 77° |
| 2026-05-04 20:17 | 51.14779 | -0.19322 | 209 ft | 149 kts | 77° |
| 2026-05-04 20:17 | 51.15022 | -0.17437 | 390 ft | 189 kts | 78° |
| 2026-05-04 20:18 | 51.15243 | -0.15433 | 1505 ft | 178 kts | 78° |
| 2026-05-04 20:18 | 51.15461 | -0.13574 | 2582 ft | 168 kts | 77° |
| 2026-05-04 20:18 | 51.15695 | -0.11883 | 3281 ft | 169 kts | 76° |
| 2026-05-04 20:18 | 51.15974 | -0.09966 | 3734 ft | 185 kts | 76° |
| 2026-05-04 20:19 | 51.16288 | -0.07864 | 4086 ft | 207 kts | 76° |
| 2026-05-04 20:19 | 51.16629 | -0.05585 | 4488 ft | 224 kts | 76° |
| 2026-05-04 20:19 | 51.16901 | -0.03067 | 5022 ft | 238 kts | 86° |
| 2026-05-04 20:19 | 51.16922 | -0.00337 | 5526 ft | 252 kts | 90° |
| 2026-05-04 20:20 | 51.16880 | 0.02498 | 5783 ft | 272 kts | 91° |
| 2026-05-04 20:20 | 51.16827 | 0.05534 | 5894 ft | 273 kts | 91° |
| 2026-05-04 20:20 | 51.16758 | 0.08630 | 5954 ft | 295 kts | 91° |
| 2026-05-04 20:20 | 51.16673 | 0.12002 | 6251 ft | 313 kts | 91° |
| 2026-05-04 20:21 | 51.16586 | 0.15477 | 6518 ft | 330 kts | 91° |
| 2026-05-04 20:21 | 51.16541 | 0.19220 | 6757 ft | 346 kts | 90° |
| 2026-05-04 20:21 | 51.16544 | 0.27038 | 7741 ft | 358 kts | 89° |
| 2026-05-04 20:22 | 51.16563 | 0.31035 | 8334 ft | 361 kts | 89° |
| 2026-05-04 20:22 | 51.16581 | 0.35041 | 9061 ft | 358 kts | 90° |
| 2026-05-04 20:22 | 51.16594 | 0.38932 | 10022 ft | 349 kts | 90° |
| 2026-05-04 20:22 | 51.16602 | 0.42759 | 10919 ft | 341 kts | 90° |
| 2026-05-04 20:23 | 51.16603 | 0.46199 | 11764 ft | 333 kts | 90° |
| 2026-05-04 20:23 | 51.16603 | 0.49740 | 12639 ft | 327 kts | 90° |
| 2026-05-04 20:23 | 51.16599 | 0.53420 | 13037 ft | 338 kts | 90° |
| 2026-05-04 20:23 | 51.16591 | 0.57253 | 13223 ft | 354 kts | 90° |
| 2026-05-04 20:24 | 51.16580 | 0.61259 | 13363 ft | 370 kts | 90° |
| 2026-05-04 20:24 | 51.16567 | 0.65401 | 13564 ft | 385 kts | 90° |
| 2026-05-04 20:24 | 51.16552 | 0.69697 | 14145 ft | 389 kts | 90° |
| 2026-05-04 20:24 | 51.16537 | 0.74054 | 14730 ft | 395 kts | 91° |
| 2026-05-04 20:25 | 51.16518 | 0.78471 | 15498 ft | 398 kts | 90° |
| 2026-05-04 20:25 | 51.16505 | 0.82847 | 16298 ft | 401 kts | 91° |
| 2026-05-04 20:25 | 51.16495 | 0.87326 | 16989 ft | 408 kts | 91° |
| 2026-05-04 20:25 | 51.16486 | 0.91867 | 17827 ft | 410 kts | 91° |
| 2026-05-04 20:26 | 51.16478 | 0.96414 | 18514 ft | 417 kts | 91° |
| 2026-05-04 20:26 | 51.16462 | 1.01078 | 19174 ft | 422 kts | 91° |
| 2026-05-04 20:26 | 51.16442 | 1.05801 | 19849 ft | 427 kts | 91° |
| 2026-05-04 20:26 | 51.16426 | 1.10583 | 20497 ft | 432 kts | 91° |
| 2026-05-04 20:27 | 51.16410 | 1.15357 | 21153 ft | 437 kts | 91° |
| 2026-05-04 20:27 | 51.16385 | 1.20236 | 21783 ft | 443 kts | 92° |
| 2026-05-04 20:27 | 51.16343 | 1.25204 | 22445 ft | 447 kts | 92° |
| 2026-05-04 20:27 | 51.16302 | 1.30132 | 23051 ft | 453 kts | 92° |
| 2026-05-04 20:28 | 51.16269 | 1.35194 | 23660 ft | 457 kts | 92° |
| 2026-05-04 20:28 | 51.16141 | 1.40268 | 24312 ft | 458 kts | 95° |
| 2026-05-04 20:28 | 51.15889 | 1.45374 | 24754 ft | 466 kts | 97° |
| 2026-05-04 20:28 | 51.15589 | 1.50459 | 25470 ft | 466 kts | 96° |
| 2026-05-04 20:29 | 51.15283 | 1.55660 | 26014 ft | 472 kts | 96° |
| 2026-05-04 20:29 | 51.14996 | 1.60888 | 26572 ft | 476 kts | 96° |
| 2026-05-04 20:29 | 51.14722 | 1.66157 | 27205 ft | 478 kts | 96° |
| 2026-05-04 20:29 | 51.14458 | 1.71397 | 27688 ft | 482 kts | 96° |
| 2026-05-04 20:30 | 51.14195 | 1.76804 | 28178 ft | 485 kts | 96° |
| 2026-05-04 20:30 | 51.13937 | 1.82177 | 28587 ft | 488 kts | 96° |
| 2026-05-04 20:30 | 51.13678 | 1.87580 | 28939 ft | 491 kts | 96° |
| 2026-05-04 20:30 | 51.13416 | 1.92927 | 29286 ft | 491 kts | 96° |
| 2026-05-04 20:31 | 51.13146 | 1.98360 | 29554 ft | 494 kts | 96° |
| 2026-05-04 20:31 | 51.12868 | 2.03811 | 29807 ft | 495 kts | 97° |
| 2026-05-04 20:31 | 51.12570 | 2.09301 | 29984 ft | 497 kts | 97° |
| 2026-05-04 20:31 | 51.12259 | 2.14829 | 29706 ft | 499 kts | 97° |
| 2026-05-04 20:32 | 51.11949 | 2.20309 | 29360 ft | 493 kts | 97° |
| 2026-05-04 20:32 | 51.11648 | 2.25651 | 29024 ft | 490 kts | 97° |
| 2026-05-04 20:32 | 51.11347 | 2.31055 | 28681 ft | 489 kts | 97° |
| 2026-05-04 20:32 | 51.10646 | 2.43696 | 27901 ft | 489 kts | 96° |
| 2026-05-04 20:33 | 51.09392 | 2.65459 | 26615 ft | 493 kts | 101° |
| 2026-05-04 20:33 | 51.06934 | 2.79499 | 25815 ft | 496 kts | 108° |
| 2026-05-04 20:33 | 51.02977 | 3.00419 | 24658 ft | 504 kts | 107° |
| 2026-05-04 20:33 | 50.99042 | 3.22047 | 23490 ft | 511 kts | 107° |
| 2026-05-04 20:34 | 50.94976 | 3.43698 | 22159 ft | 510 kts | 107° |
| 2026-05-04 20:34 | 50.90985 | 3.65085 | 20917 ft | 512 kts | 107° |
| 2026-05-04 20:34 | 50.86762 | 3.86715 | 19712 ft | 511 kts | 107° |
| 2026-05-04 20:34 | 50.82541 | 4.08359 | 18549 ft | 514 kts | 107° |
| 2026-05-04 20:35 | 50.78395 | 4.29654 | 17332 ft | 511 kts | 108° |
| 2026-05-04 20:35 | 50.74052 | 4.51148 | 16070 ft | 514 kts | 107° |
| 2026-05-04 20:35 | 50.69786 | 4.72860 | 14877 ft | 517 kts | 106° |
| 2026-05-04 20:35 | 50.65642 | 4.94163 | 13739 ft | 519 kts | 107° |
| 2026-05-04 20:36 | 50.61192 | 5.15644 | 12488 ft | 520 kts | 108° |
| 2026-05-04 20:36 | 50.56680 | 5.37362 | 11266 ft | 522 kts | 107° |
| 2026-05-04 20:36 | 50.52202 | 5.58907 | 10098 ft | 524 kts | 108° |
| 2026-05-04 20:36 | 50.49427 | 5.77456 | 9077 ft | 526 kts | 101° |
| 2026-05-04 20:37 | 50.47090 | 5.96074 | 9924 ft | 500 kts | 102° |
| 2026-05-04 20:37 | 50.44288 | 6.17357 | 10516 ft | 384 kts | 104° |
| 2026-05-04 20:37 | 50.42506 | 6.30714 | 14074 ft | 394 kts | 105° |
| 2026-05-04 20:37 | 50.39966 | 6.48435 | 9845 ft | 496 kts | 104° |
| 2026-05-04 20:38 | 50.37625 | 6.66170 | 14329 ft | 459 kts | 104° |
| 2026-05-04 20:38 | 50.34961 | 6.85174 | 18160 ft | 418 kts | 105° |
| 2026-05-04 20:38 | 50.32506 | 7.02467 | 19531 ft | 374 kts | 106° |
| 2026-05-04 20:38 | 50.31911 | 7.06458 | 20247 ft | 367 kts | 107° |
| 2026-05-04 20:39 | 50.31284 | 7.10499 | 16357 ft | 428 kts | 107° |
| 2026-05-04 20:39 | 50.30504 | 7.15345 | 10058 ft | 543 kts | 107° |
| 2026-05-04 20:39 | 50.29663 | 7.20755 | 10917 ft | 476 kts | 105° |
| 2026-05-04 20:39 | 50.29002 | 7.25527 | 11802 ft | 419 kts | 105° |
| 2026-05-04 20:40 | 50.28428 | 7.29811 | 11760 ft | 394 kts | 105° |
| 2026-05-04 20:40 | 50.27875 | 7.33861 | 12290 ft | 376 kts | 105° |
| 2026-05-04 20:40 | 50.27305 | 7.37899 | 12703 ft | 384 kts | 106° |
| 2026-05-04 20:40 | 50.26716 | 7.41968 | 13167 ft | 391 kts | 106° |
| 2026-05-04 20:41 | 50.26107 | 7.46155 | 13656 ft | 399 kts | 106° |
| 2026-05-04 20:41 | 50.25487 | 7.50436 | 14097 ft | 406 kts | 105° |
| 2026-05-04 20:41 | 50.24856 | 7.54796 | 14519 ft | 413 kts | 105° |
| 2026-05-04 20:41 | 50.24230 | 7.59146 | 14956 ft | 419 kts | 105° |
| 2026-05-04 20:42 | 50.23576 | 7.63635 | 15394 ft | 426 kts | 106° |
| 2026-05-04 20:42 | 50.22944 | 7.67821 | 15808 ft | 432 kts | 106° |